Time;durP1;ratioP1;P1;durP2;ratioP2;P2;SDS_P1;SDS_P2;PMS_P1;PMS_P2;Temp;Humidity;BMP_temperature;BMP_pressure;BME280_temperature;BME280_humidity;BME280_pressure;Samples;Min_cycle;Max_cycle;Signal;HPM_P1;HPM_P2
2021/08/21 00:00:11;;;;;;;13.40;6.03;;;21.50;88.60;;;;;;1849119;76;21048;-47
2021/08/21 00:02:39;;;;;;;10.10;5.87;;;21.50;88.40;;;;;;1849115;76;21057;-46
2021/08/21 00:05:09;;;;;;;8.35;5.20;;;21.50;88.40;;;;;;1849190;76;21132;-47
2021/08/21 00:07:38;;;;;;;8.80;5.67;;;21.50;88.50;;;;;;1849093;77;21037;-47
2021/08/21 00:10:10;;;;;;;7.60;6.25;;;21.50;88.50;;;;;;1849125;77;21029;-48
2021/08/21 00:12:39;;;;;;;8.15;5.92;;;21.50;88.40;;;;;;1849216;77;21088;-50
2021/08/21 00:15:12;;;;;;;12.40;7.45;;;21.50;88.30;;;;;;1849108;76;21083;-49
2021/08/21 00:17:41;;;;;;;7.00;5.80;;;21.50;88.20;;;;;;1849061;76;21033;-47
2021/08/21 00:20:11;;;;;;;9.50;5.90;;;21.50;88.20;;;;;;1849228;76;21061;-46
2021/08/21 00:22:40;;;;;;;12.30;6.10;;;21.50;88.10;;;;;;1849096;77;21079;-46
2021/08/21 00:25:11;;;;;;;9.83;5.62;;;21.50;88.00;;;;;;1849180;77;21041;-46
2021/08/21 00:27:41;;;;;;;14.40;6.08;;;21.50;88.00;;;;;;1849210;77;21151;-46
2021/08/21 00:30:12;;;;;;;8.40;6.17;;;21.50;87.90;;;;;;1849401;76;21116;-48
2021/08/21 00:32:42;;;;;;;13.65;6.33;;;21.50;87.90;;;;;;1849202;77;21050;-48
2021/08/21 00:35:12;;;;;;;7.67;5.40;;;21.40;87.80;;;;;;1849206;77;21167;-48
2021/08/21 00:37:42;;;;;;;9.18;5.60;;;21.40;87.80;;;;;;1849167;77;21076;-48
2021/08/21 00:40:12;;;;;;;8.80;5.60;;;21.40;87.90;;;;;;1849202;77;21061;-45
2021/08/21 00:42:41;;;;;;;10.72;5.65;;;21.30;87.80;;;;;;1849073;77;21025;-45
2021/08/21 00:45:11;;;;;;;9.33;4.83;;;21.30;87.90;;;;;;1849042;76;21065;-47
2021/08/21 00:47:41;;;;;;;13.30;5.85;;;21.30;88.00;;;;;;1849084;77;21090;-47
2021/08/21 00:50:10;;;;;;;10.53;5.65;;;21.30;87.90;;;;;;1849202;77;21017;-48
2021/08/21 00:52:40;;;;;;;8.98;6.03;;;21.30;88.00;;;;;;1849052;77;21022;-49
2021/08/21 00:55:11;;;;;;;11.22;5.17;;;21.30;87.90;;;;;;1849080;77;21046;-47
2021/08/21 00:57:40;;;;;;;6.12;4.35;;;21.20;87.90;;;;;;1849104;77;21006;-49
2021/08/21 01:00:11;;;;;;;7.05;5.45;;;21.20;87.90;;;;;;1849095;76;21025;-48
2021/08/21 01:02:41;;;;;;;9.98;5.70;;;21.20;88.60;;;;;;1849141;76;21109;-49
2021/08/21 01:05:15;;;;;;;9.23;5.60;;;21.20;87.90;;;;;;1849031;77;21036;-47
2021/08/21 01:07:44;;;;;;;8.58;5.70;;;21.20;87.90;;;;;;1849094;77;21495;-49
2021/08/21 01:10:16;;;;;;;11.68;5.80;;;21.20;88.10;;;;;;1849069;77;21101;-49
2021/08/21 01:12:52;;;;;;;9.48;5.55;;;21.20;88.20;;;;;;1848840;77;21148;-48
2021/08/21 01:15:23;;;;;;;10.38;5.62;;;21.20;88.20;;;;;;1849267;77;21143;-49
2021/08/21 01:17:55;;;;;;;9.20;5.50;;;21.10;88.40;;;;;;1846604;76;21180;-49
2021/08/21 01:20:26;;;;;;;6.53;5.70;;;21.10;88.70;;;;;;1849127;77;21061;-48
2021/08/21 01:22:56;;;;;;;8.10;5.60;;;21.20;88.80;;;;;;1849186;76;21150;-49
2021/08/21 01:25:43;;;;;;;12.45;5.87;;;21.20;88.90;;;;;;1849030;77;21059;-46
2021/08/21 01:28:13;;;;;;;8.90;5.90;;;21.20;88.90;;;;;;1848812;76;21034;-49
2021/08/21 01:30:44;;;;;;;10.50;5.67;;;21.20;88.90;;;;;;1836009;77;21555;-48
2021/08/21 01:33:25;;;;;;;9.78;6.55;;;21.20;88.80;;;;;;1848478;77;21073;-51
2021/08/21 01:35:56;;;;;;;8.23;5.65;;;21.20;88.90;;;;;;1849124;76;21026;-49
2021/08/21 01:38:27;;;;;;;8.18;6.22;;;21.20;88.90;;;;;;1848514;77;21056;-48
2021/08/21 01:40:58;;;;;;;10.43;6.45;;;21.10;88.80;;;;;;1846289;76;21037;-50
2021/08/21 01:43:29;;;;;;;9.28;5.10;;;21.10;88.80;;;;;;1848212;77;21085;-50
2021/08/21 01:45:59;;;;;;;8.75;5.92;;;21.10;88.80;;;;;;1849059;77;21030;-49
2021/08/21 01:48:29;;;;;;;11.18;6.10;;;21.20;89.00;;;;;;1816043;77;21041;-47
2021/08/21 01:50:59;;;;;;;8.10;5.78;;;21.10;88.70;;;;;;1849060;77;21088;-49
2021/08/21 01:53:29;;;;;;;8.58;6.17;;;21.00;88.70;;;;;;1849181;77;21029;-46
2021/08/21 01:55:59;;;;;;;12.40;5.60;;;21.00;88.80;;;;;;1849234;76;21005;-48
2021/08/21 01:58:29;;;;;;;8.23;6.05;;;21.00;89.00;;;;;;1844020;76;21064;-49
2021/08/21 02:01:04;;;;;;;9.95;6.03;;;21.00;89.10;;;;;;1846200;77;21081;-49
2021/08/21 02:03:35;;;;;;;6.75;5.78;;;21.00;89.20;;;;;;1848907;77;21040;-46
2021/08/21 02:06:05;;;;;;;11.45;6.20;;;20.90;89.10;;;;;;1849030;76;21065;-46
2021/08/21 02:08:34;;;;;;;9.95;6.67;;;20.90;89.30;;;;;;1849131;77;21029;-48
2021/08/21 02:11:04;;;;;;;12.50;6.25;;;20.90;89.40;;;;;;1849055;77;20998;-49
2021/08/21 02:13:34;;;;;;;9.15;5.85;;;20.90;89.40;;;;;;1849075;77;21088;-48
2021/08/21 02:16:05;;;;;;;11.83;6.22;;;20.90;89.40;;;;;;1849063;76;21030;-47
2021/08/21 02:18:35;;;;;;;8.90;5.60;;;20.90;89.30;;;;;;1849268;77;21026;-48
2021/08/21 02:21:09;;;;;;;10.25;6.10;;;20.90;89.10;;;;;;1837918;76;21069;-46
2021/08/21 02:23:38;;;;;;;10.35;6.17;;;20.90;89.20;;;;;;1837375;77;21006;-48
2021/08/21 02:26:08;;;;;;;11.00;5.87;;;20.90;89.10;;;;;;1837356;78;21030;-48
2021/08/21 02:28:39;;;;;;;9.18;5.45;;;20.90;89.20;;;;;;1837151;78;21006;-48
2021/08/21 02:31:08;;;;;;;9.78;6.87;;;20.90;89.20;;;;;;1837349;77;21088;-47
2021/08/21 02:33:38;;;;;;;11.50;6.67;;;20.90;89.30;;;;;;1837275;77;21104;-49
2021/08/21 02:36:08;;;;;;;11.68;6.12;;;21.00;89.40;;;;;;1837333;77;21085;-49
2021/08/21 02:38:38;;;;;;;13.05;6.85;;;20.90;89.30;;;;;;1837271;76;21034;-49
2021/08/21 02:41:07;;;;;;;10.78;6.00;;;20.90;89.10;;;;;;1837250;77;21010;-47
2021/08/21 02:43:38;;;;;;;13.13;6.30;;;20.90;89.10;;;;;;1837374;78;21030;-50
2021/08/21 02:46:07;;;;;;;15.58;6.15;;;20.90;89.30;;;;;;1837223;78;21026;-50
2021/08/21 02:48:36;;;;;;;7.58;6.10;;;20.90;89.10;;;;;;1837374;78;21092;-48
2021/08/21 02:51:05;;;;;;;8.85;5.97;;;20.90;88.80;;;;;;1837246;77;21030;-48
2021/08/21 02:53:35;;;;;;;10.10;6.25;;;20.90;88.90;;;;;;1837266;78;21030;-50
2021/08/21 02:56:04;;;;;;;10.50;5.47;;;20.90;88.90;;;;;;1837414;78;21034;-49
2021/08/21 02:58:34;;;;;;;5.70;4.97;;;20.90;88.80;;;;;;1837320;77;21029;-47
2021/08/21 03:01:03;;;;;;;7.65;5.83;;;20.90;88.90;;;;;;1837266;78;21014;-49
2021/08/21 03:03:33;;;;;;;14.53;5.62;;;20.90;89.00;;;;;;1837370;78;21084;-47
2021/08/21 03:06:03;;;;;;;8.63;5.78;;;20.90;89.10;;;;;;1837318;78;21085;-48
2021/08/21 03:08:32;;;;;;;10.55;6.47;;;20.90;89.00;;;;;;1837210;77;21069;-48
2021/08/21 03:11:02;;;;;;;10.90;6.00;;;20.90;89.00;;;;;;1837396;77;21105;-48
2021/08/21 03:13:33;;;;;;;14.38;5.60;;;20.90;89.00;;;;;;1835038;78;21041;-49
2021/08/21 03:16:03;;;;;;;9.88;5.75;;;20.90;89.10;;;;;;1837261;77;21029;-49
2021/08/21 03:18:32;;;;;;;9.30;5.85;;;20.90;89.30;;;;;;1837243;77;21057;-47
2021/08/21 03:21:02;;;;;;;7.05;4.97;;;21.00;89.40;;;;;;1841729;76;21125;-49
2021/08/21 03:23:33;;;;;;;6.90;5.97;;;21.10;89.40;;;;;;1849082;76;21085;-48
2021/08/21 03:26:02;;;;;;;9.35;5.80;;;21.10;89.40;;;;;;1848994;77;21073;-49
2021/08/21 03:28:32;;;;;;;15.20;6.87;;;21.20;89.50;;;;;;1849055;77;21081;-48
2021/08/21 03:31:03;;;;;;;9.00;5.67;;;21.30;89.20;;;;;;1848995;76;21091;-48
2021/08/21 03:33:32;;;;;;;9.68;6.17;;;21.40;88.80;;;;;;1849077;77;21084;-49
2021/08/21 03:36:02;;;;;;;9.68;5.97;;;21.40;88.70;;;;;;1849053;76;21069;-49
2021/08/21 03:38:32;;;;;;;12.07;6.17;;;21.40;88.80;;;;;;1848979;77;21162;-48
2021/08/21 03:41:05;;;;;;;16.00;6.83;;;21.50;88.90;;;;;;1847478;77;21058;-48
2021/08/21 03:43:36;;;;;;;8.93;6.20;;;21.60;89.00;;;;;;1847605;77;21167;-50
2021/08/21 03:46:06;;;;;;;13.60;5.95;;;21.60;88.90;;;;;;1848915;76;21546;-48
2021/08/21 03:48:36;;;;;;;30.23;19.92;;;21.70;88.80;;;;;;1849117;76;21009;-49
2021/08/21 03:51:06;;;;;;;10.15;6.83;;;21.70;88.80;;;;;;1884661;76;21019;-50
2021/08/21 03:53:37;;;;;;;7.08;5.47;;;21.80;88.70;;;;;;1884652;75;21515;-48
2021/08/21 03:56:07;;;;;;;14.95;7.95;;;21.90;88.50;;;;;;1884389;75;21002;-49
2021/08/21 03:58:38;;;;;;;12.55;6.58;;;21.90;88.40;;;;;;1884270;76;21619;-49
2021/08/21 04:01:09;;;;;;;10.88;5.15;;;21.90;88.40;;;;;;1884776;75;20994;-48
2021/08/21 04:03:39;;;;;;;7.62;5.75;;;22.00;88.40;;;;;;1884803;76;21069;-49
2021/08/21 04:06:09;;;;;;;8.45;5.08;;;22.10;88.30;;;;;;1884662;76;21092;-49
2021/08/21 04:08:39;;;;;;;9.18;5.03;;;22.10;88.10;;;;;;1884770;75;21050;-50
2021/08/21 04:11:08;;;;;;;8.55;4.90;;;22.20;88.10;;;;;;1884599;76;21018;-49
2021/08/21 04:13:39;;;;;;;11.03;5.33;;;22.30;87.70;;;;;;1883379;76;21033;-48
2021/08/21 04:16:10;;;;;;;8.18;4.42;;;22.30;87.50;;;;;;1884890;76;21059;-48
2021/08/21 04:18:39;;;;;;;9.85;5.15;;;22.30;87.10;;;;;;1884730;76;21026;-49
2021/08/21 04:21:10;;;;;;;7.45;5.15;;;22.40;86.90;;;;;;1882342;76;21058;-49
2021/08/21 04:23:39;;;;;;;6.95;4.40;;;22.40;86.80;;;;;;1872446;77;21211;-51
2021/08/21 04:26:10;;;;;;;10.43;5.03;;;22.50;86.60;;;;;;1872511;77;21013;-50
2021/08/21 04:28:40;;;;;;;6.72;5.10;;;22.60;86.70;;;;;;1872453;77;21086;-50
2021/08/21 04:31:09;;;;;;;7.97;4.30;;;22.60;86.30;;;;;;1872461;76;21031;-50
2021/08/21 04:33:39;;;;;;;10.80;4.78;;;22.70;86.10;;;;;;1872650;76;21007;-48
2021/08/21 04:36:09;;;;;;;7.33;5.15;;;22.70;86.10;;;;;;1860253;77;21080;-50
2021/08/21 04:38:40;;;;;;;6.00;4.65;;;22.80;85.90;;;;;;1872606;75;21034;-49
2021/08/21 04:41:10;;;;;;;4.83;4.22;;;22.80;85.50;;;;;;1872588;77;21035;-49
2021/08/21 04:43:39;;;;;;;6.72;4.20;;;22.90;85.30;;;;;;1872657;75;21031;-49
2021/08/21 04:46:10;;;;;;;7.33;4.40;;;22.90;85.20;;;;;;1872537;77;21023;-49
2021/08/21 04:48:39;;;;;;;8.20;4.03;;;23.00;85.20;;;;;;1872486;77;21035;-51
2021/08/21 04:51:10;;;;;;;7.83;4.17;;;23.00;84.90;;;;;;1860486;77;21023;-49
2021/08/21 04:53:40;;;;;;;9.85;4.17;;;23.10;84.40;;;;;;1872629;77;21039;-49
2021/08/21 04:56:10;;;;;;;6.28;4.50;;;23.10;84.20;;;;;;1872518;77;21003;-48
2021/08/21 04:58:41;;;;;;;9.30;4.95;;;23.20;84.00;;;;;;1832266;77;21046;-48
2021/08/21 05:01:11;;;;;;;6.50;4.12;;;23.20;84.00;;;;;;1872479;77;21398;-49
2021/08/21 05:03:42;;;;;;;10.75;5.60;;;23.30;84.00;;;;;;1872293;76;21115;-49
2021/08/21 05:06:12;;;;;;;12.53;5.25;;;23.30;84.10;;;;;;1872397;77;21085;-48
2021/08/21 05:08:42;;;;;;;9.13;5.80;;;23.40;83.70;;;;;;1872724;76;21092;-47
2021/08/21 05:11:12;;;;;;;6.50;4.42;;;23.40;83.50;;;;;;1872410;77;21105;-47
2021/08/21 05:13:41;;;;;;;7.47;4.33;;;23.50;84.10;;;;;;1872430;77;21145;-48
2021/08/21 05:16:11;;;;;;;4.55;4.00;;;23.50;83.50;;;;;;1872376;77;21097;-48
2021/08/21 05:18:52;;;;;;;8.98;4.45;;;23.50;83.20;;;;;;1871494;76;21137;-48
2021/08/21 05:21:32;;;;;;;26.77;6.62;;;23.60;83.10;;;;;;1872883;75;21571;-48
2021/08/21 05:24:01;;;;;;;8.85;5.85;;;23.70;82.90;;;;;;1893826;76;21046;-49
2021/08/21 05:26:31;;;;;;;9.73;4.75;;;23.70;82.50;;;;;;1893859;75;21027;-49
2021/08/21 05:29:00;;;;;;;6.95;4.15;;;23.70;82.40;;;;;;1893979;76;21092;-49
2021/08/21 05:31:30;;;;;;;7.72;4.15;;;23.70;81.80;;;;;;1893850;74;21030;-50
2021/08/21 05:34:01;;;;;;;5.87;3.90;;;23.70;81.30;;;;;;1893985;76;21030;-50
2021/08/21 05:36:30;;;;;;;9.18;4.42;;;23.70;81.20;;;;;;1893893;74;21069;-45
2021/08/21 05:39:01;;;;;;;6.05;3.90;;;23.70;81.10;;;;;;1894076;76;21030;-49
2021/08/21 05:41:30;;;;;;;8.98;4.17;;;23.70;80.70;;;;;;1894021;76;21101;-50
2021/08/21 05:43:59;;;;;;;6.33;4.10;;;23.80;80.10;;;;;;1894050;76;21022;-49
2021/08/21 05:46:28;;;;;;;7.97;4.05;;;23.80;79.70;;;;;;1894008;76;21030;-46
2021/08/21 05:48:58;;;;;;;8.10;4.65;;;23.80;79.10;;;;;;1893912;76;21127;-49
2021/08/21 05:51:29;;;;;;;8.03;4.30;;;23.80;79.00;;;;;;1893918;74;21030;-49
2021/08/21 05:53:58;;;;;;;6.03;3.47;;;23.80;78.90;;;;;;1894003;76;21159;-49
2021/08/21 05:56:28;;;;;;;8.00;4.62;;;23.70;78.80;;;;;;1893831;76;21091;-50
2021/08/21 05:58:57;;;;;;;5.20;3.60;;;23.80;79.30;;;;;;1894026;75;21030;-49
2021/08/21 06:01:27;;;;;;;6.47;4.12;;;23.80;79.70;;;;;;1893924;76;21028;-45
2021/08/21 06:03:56;;;;;;;6.03;4.03;;;24.00;79.80;;;;;;1894015;76;21061;-49
2021/08/21 06:06:26;;;;;;;6.05;4.00;;;24.10;79.40;;;;;;1894086;75;21026;-47
2021/08/21 06:08:56;;;;;;;7.67;4.15;;;24.20;79.10;;;;;;1893989;76;21038;-50
2021/08/21 06:11:25;;;;;;;6.83;4.28;;;24.30;78.70;;;;;;1893944;76;21085;-49
2021/08/21 06:13:55;;;;;;;5.28;3.60;;;24.40;78.30;;;;;;1894043;76;21081;-49
2021/08/21 06:16:24;;;;;;;5.62;3.37;;;24.50;78.20;;;;;;1893961;76;21030;-49
2021/08/21 06:18:53;;;;;;;6.47;3.77;;;24.50;78.10;;;;;;1894022;76;21030;-48
2021/08/21 06:21:23;;;;;;;5.47;3.80;;;24.60;77.50;;;;;;1894150;76;21107;-49
2021/08/21 06:23:52;;;;;;;8.98;4.25;;;24.60;77.30;;;;;;1876251;75;21031;-48
2021/08/21 06:26:21;;;;;;;5.78;4.47;;;24.60;77.20;;;;;;1872498;77;21051;-49
2021/08/21 06:28:51;;;;;;;16.55;6.70;;;24.50;77.40;;;;;;1872563;77;21097;-47
2021/08/21 06:31:20;;;;;;;8.80;5.37;;;24.50;77.20;;;;;;1872426;77;21081;-49
2021/08/21 06:33:50;;;;;;;7.53;5.53;;;24.40;77.00;;;;;;1872547;77;21031;-49
2021/08/21 06:36:19;;;;;;;5.50;4.50;;;24.40;76.90;;;;;;1872535;75;21007;-49
2021/08/21 06:38:49;;;;;;;10.63;4.60;;;24.40;76.80;;;;;;1872429;77;21027;-49
2021/08/21 06:41:18;;;;;;;9.03;4.42;;;24.40;76.70;;;;;;1872498;76;21071;-49
2021/08/21 06:43:49;;;;;;;5.92;4.45;;;24.40;76.60;;;;;;1872390;75;21054;-49
2021/08/21 06:46:20;;;;;;;8.15;4.53;;;24.40;76.90;;;;;;1870018;76;21011;-48
2021/08/21 06:48:50;;;;;;;9.18;4.58;;;24.40;77.20;;;;;;1872533;77;21097;-48
2021/08/21 06:51:19;;;;;;;5.55;4.10;;;24.50;77.40;;;;;;1872521;77;21007;-49
2021/08/21 06:53:49;;;;;;;6.28;4.33;;;24.50;77.30;;;;;;1872554;77;21020;-49
2021/08/21 06:56:18;;;;;;;10.43;4.62;;;24.60;77.30;;;;;;1872391;77;21085;-48
2021/08/21 06:58:48;;;;;;;7.22;4.53;;;24.70;77.00;;;;;;1872439;77;21055;-49
2021/08/21 07:01:17;;;;;;;7.12;4.33;;;24.80;76.60;;;;;;1872426;77;21003;-48
2021/08/21 07:03:47;;;;;;;6.65;5.20;;;24.90;76.40;;;;;;1872466;77;21023;-49
2021/08/21 07:06:16;;;;;;;6.95;5.08;;;25.00;75.50;;;;;;1872346;77;21019;-47
2021/08/21 07:08:45;;;;;;;6.03;4.60;;;25.10;74.10;;;;;;1872402;77;21132;-49
2021/08/21 07:11:15;;;;;;;9.05;4.60;;;25.20;73.70;;;;;;1872419;75;21046;-49
2021/08/21 07:13:45;;;;;;;8.23;4.60;;;25.20;73.20;;;;;;1872427;76;21011;-49
2021/08/21 07:16:15;;;;;;;9.18;5.30;;;25.30;73.20;;;;;;1872350;77;21132;-46
2021/08/21 07:18:44;;;;;;;12.18;4.78;;;25.30;73.50;;;;;;1872390;77;21046;-46
2021/08/21 07:21:14;;;;;;;7.87;4.60;;;25.40;73.60;;;;;;1872385;76;21027;-47
2021/08/21 07:23:43;;;;;;;6.17;4.53;;;25.40;72.80;;;;;;1883398;75;21120;-46
2021/08/21 07:26:13;;;;;;;13.08;5.33;;;25.40;72.50;;;;;;1894183;75;21018;-49
2021/08/21 07:28:43;;;;;;;6.53;3.87;;;25.40;72.10;;;;;;1893948;76;21030;-45
2021/08/21 07:31:12;;;;;;;8.50;5.00;;;25.40;72.50;;;;;;1893861;76;21026;-48
2021/08/21 07:33:41;;;;;;;5.60;4.47;;;25.40;72.70;;;;;;1893888;76;21080;-49
2021/08/21 07:36:11;;;;;;;5.65;4.53;;;25.50;72.30;;;;;;1893839;75;21104;-49
2021/08/21 07:38:40;;;;;;;6.47;4.60;;;25.50;72.20;;;;;;1893994;75;21101;-50
2021/08/21 07:41:11;;;;;;;10.88;5.47;;;25.60;71.70;;;;;;1893718;75;21084;-47
2021/08/21 07:43:40;;;;;;;6.00;5.25;;;25.60;71.00;;;;;;1893866;76;21146;-49
2021/08/21 07:46:10;;;;;;;14.83;7.00;;;25.60;70.80;;;;;;1893714;76;21083;-47
2021/08/21 07:48:40;;;;;;;10.78;6.00;;;25.60;70.70;;;;;;1893900;76;21158;-46
2021/08/21 07:51:09;;;;;;;10.70;6.17;;;25.70;70.40;;;;;;1893873;75;21155;-48
2021/08/21 07:53:38;;;;;;;9.10;4.70;;;25.80;70.10;;;;;;1893992;76;21088;-49
2021/08/21 07:56:08;;;;;;;9.35;5.90;;;25.80;69.60;;;;;;1893932;76;21046;-49
2021/08/21 07:58:37;;;;;;;7.25;4.80;;;25.90;69.60;;;;;;1894045;76;21026;-49
2021/08/21 08:01:07;;;;;;;10.58;5.40;;;25.80;69.50;;;;;;1894051;75;21088;-49
2021/08/21 08:03:36;;;;;;;9.60;5.83;;;25.90;69.30;;;;;;1894132;76;21066;-48
2021/08/21 08:06:05;;;;;;;11.83;7.60;;;25.90;69.70;;;;;;1894013;76;21147;-49
2021/08/21 08:08:35;;;;;;;9.40;5.80;;;25.90;69.20;;;;;;1894085;74;21022;-47
2021/08/21 08:11:04;;;;;;;7.78;5.12;;;25.90;68.20;;;;;;1894103;76;21164;-48
2021/08/21 08:13:34;;;;;;;7.25;5.22;;;25.90;67.70;;;;;;1894018;76;21030;-49
2021/08/21 08:16:03;;;;;;;10.72;5.37;;;25.90;67.60;;;;;;1894069;76;21006;-46
2021/08/21 08:18:32;;;;;;;10.82;5.65;;;25.90;67.50;;;;;;1894009;75;21030;-50
2021/08/21 08:21:02;;;;;;;8.33;5.12;;;25.90;67.70;;;;;;1893906;76;21120;-46
2021/08/21 08:23:31;;;;;;;9.40;5.00;;;25.90;67.60;;;;;;1894015;75;21054;-49
2021/08/21 08:26:00;;;;;;;6.72;4.50;;;26.00;67.90;;;;;;1893968;76;21022;-46
2021/08/21 08:28:30;;;;;;;7.65;4.67;;;26.00;68.10;;;;;;1894085;76;21018;-48
2021/08/21 08:30:59;;;;;;;7.97;4.90;;;26.10;67.50;;;;;;1893920;74;21026;-48
2021/08/21 08:33:29;;;;;;;19.05;8.98;;;26.20;67.40;;;;;;1893920;75;21026;-49
2021/08/21 08:35:58;;;;;;;12.45;6.97;;;26.20;67.90;;;;;;1893921;76;21538;-46
2021/08/21 08:38:27;;;;;;;7.50;5.37;;;26.40;68.00;;;;;;1893975;76;21042;-46
2021/08/21 08:40:57;;;;;;;6.53;4.37;;;26.40;68.10;;;;;;1894017;76;21023;-50
2021/08/21 08:43:27;;;;;;;6.45;4.62;;;26.50;68.10;;;;;;1894060;74;21030;-47
2021/08/21 08:45:57;;;;;;;9.55;4.90;;;26.50;68.00;;;;;;1893903;76;21030;-50
2021/08/21 08:48:27;;;;;;;5.60;4.95;;;26.60;67.80;;;;;;1893985;76;21121;-47
2021/08/21 08:50:57;;;;;;;5.30;4.35;;;26.60;67.80;;;;;;1893957;75;21038;-50
2021/08/21 08:53:26;;;;;;;7.58;5.10;;;26.70;67.80;;;;;;1893983;76;21023;-49
2021/08/21 08:55:56;;;;;;;7.83;4.67;;;26.70;67.70;;;;;;1893958;76;21066;-50
2021/08/21 08:58:25;;;;;;;6.97;4.65;;;26.70;67.20;;;;;;1893927;76;21158;-48
2021/08/21 09:00:55;;;;;;;9.20;5.40;;;26.80;67.00;;;;;;1893898;76;21026;-49
2021/08/21 09:03:26;;;;;;;8.85;4.83;;;26.80;66.60;;;;;;1894103;76;21170;-46
2021/08/21 09:05:56;;;;;;;9.28;4.92;;;26.70;66.80;;;;;;1894048;76;21143;-48
2021/08/21 09:08:30;;;;;;;6.40;5.08;;;26.80;67.20;;;;;;1894003;76;21559;-48
2021/08/21 09:11:02;;;;;;;7.80;5.45;;;26.80;67.00;;;;;;1893960;76;21026;-49
2021/08/21 09:13:32;;;;;;;13.85;6.90;;;26.80;67.10;;;;;;1893937;75;21034;-46
2021/08/21 09:16:02;;;;;;;9.23;4.75;;;26.80;67.00;;;;;;1894010;76;21096;-48
2021/08/21 09:18:32;;;;;;;5.58;4.17;;;26.90;65.70;;;;;;1894166;76;21034;-49
2021/08/21 09:21:03;;;;;;;7.58;5.50;;;26.90;65.00;;;;;;1893883;76;21022;-49
2021/08/21 09:23:44;;;;;;;7.53;4.87;;;26.90;65.10;;;;;;1893929;75;21006;-50
2021/08/21 09:26:25;;;;;;;11.53;5.58;;;26.90;65.50;;;;;;1894017;76;21018;-49
2021/08/21 09:28:52;;;;;;;7.55;4.47;;;27.00;65.50;;;;;;1893742;75;21002;-49
2021/08/21 09:31:22;;;;;;;12.70;6.80;;;27.00;65.70;;;;;;1894159;76;21080;-50
2021/08/21 09:33:58;;;;;;;5.85;4.80;;;27.10;65.90;;;;;;1894155;76;21022;-48
2021/08/21 09:36:29;;;;;;;6.95;4.58;;;27.10;66.00;;;;;;1894152;76;21030;-49
2021/08/21 09:39:00;;;;;;;9.08;4.95;;;27.20;65.70;;;;;;1894035;76;21046;-49
2021/08/21 09:41:30;;;;;;;10.08;5.83;;;27.30;65.60;;;;;;1894000;74;21026;-50
2021/08/21 09:44:08;;;;;;;5.72;4.42;;;27.30;65.00;;;;;;1894039;76;21088;-48
2021/08/21 09:46:37;;;;;;;8.23;5.33;;;27.40;64.80;;;;;;1893997;76;21030;-50
2021/08/21 09:49:11;;;;;;;11.85;7.37;;;27.40;64.60;;;;;;1894056;76;21026;-46
2021/08/21 09:51:45;;;;;;;7.83;4.70;;;27.50;65.00;;;;;;1894142;75;21100;-49
2021/08/21 09:54:22;;;;;;;6.35;4.22;;;27.60;64.30;;;;;;1893464;75;21479;-49
2021/08/21 09:56:55;;;;;;;6.50;5.03;;;27.70;63.70;;;;;;1894219;75;21014;-49
2021/08/21 09:59:36;;;;;;;7.58;4.42;;;27.70;63.90;;;;;;1894411;76;21098;-48
2021/08/21 10:02:10;;;;;;;7.62;4.60;;;27.70;63.90;;;;;;1893054;75;21100;-49
2021/08/21 10:04:42;;;;;;;7.08;4.65;;;27.80;63.30;;;;;;1894143;76;21030;-49
2021/08/21 10:07:19;;;;;;;7.33;5.20;;;27.80;62.60;;;;;;1894157;75;21023;-46
2021/08/21 10:09:43;;;;;;;5.65;4.17;;;27.80;61.90;;;;;;1892687;75;21063;-47
2021/08/21 10:12:15;;;;;;;9.88;5.50;;;27.80;61.80;;;;;;1894079;76;21088;-49
2021/08/21 10:14:45;;;;;;;6.03;4.97;;;27.80;61.90;;;;;;1894040;76;21038;-47
2021/08/21 10:17:17;;;;;;;6.05;4.40;;;27.80;61.40;;;;;;1894106;75;21027;-46
2021/08/21 10:19:48;;;;;;;7.80;4.33;;;27.80;61.00;;;;;;1893476;75;21550;-46
2021/08/21 10:22:19;;;;;;;6.72;4.65;;;27.80;61.10;;;;;;1894151;75;21030;-47
2021/08/21 10:24:50;;;;;;;7.65;5.30;;;27.80;61.40;;;;;;1893972;76;21129;-48
2021/08/21 10:27:37;;;;;;;8.55;4.53;;;27.80;61.20;;;;;;1894123;76;21015;-47
2021/08/21 10:30:10;;;;;;;7.85;5.17;;;27.90;61.00;;;;;;1894039;76;21041;-47
2021/08/21 10:32:41;;;;;;;13.43;6.75;;;27.90;60.50;;;;;;1894027;76;21006;-49
2021/08/21 10:35:13;;;;;;;8.65;4.83;;;27.80;60.90;;;;;;1893977;76;21084;-47
2021/08/21 10:37:47;;;;;;;12.35;5.25;;;27.80;60.80;;;;;;1894073;75;21488;-48
2021/08/21 10:40:31;;;;;;;6.28;4.60;;;27.80;60.70;;;;;;1894130;76;21082;-46
2021/08/21 10:43:03;;;;;;;6.23;5.00;;;27.80;60.80;;;;;;1894346;76;21472;-46
2021/08/21 10:45:51;;;;;;;6.05;4.45;;;27.90;60.30;;;;;;1893990;76;21046;-48
2021/08/21 10:48:17;;;;;;;10.43;4.85;;;27.90;60.30;;;;;;1892260;75;21022;-49
2021/08/21 10:50:53;;;;;;;15.53;7.00;;;27.90;60.40;;;;;;1894046;76;21022;-45
2021/08/21 10:53:30;;;;;;;9.05;6.00;;;27.90;60.30;;;;;;1892412;75;21064;-49
2021/08/21 10:56:04;;;;;;;6.90;5.25;;;28.00;59.90;;;;;;1894014;76;21026;-49
2021/08/21 10:58:34;;;;;;;7.42;5.47;;;28.00;59.80;;;;;;1894183;76;21014;-49
2021/08/21 11:01:07;;;;;;;8.60;5.12;;;28.00;59.40;;;;;;1891342;74;21558;-45
2021/08/21 11:03:39;;;;;;;15.00;5.42;;;28.00;59.90;;;;;;1894041;75;21041;-49
2021/08/21 11:06:13;;;;;;;8.90;5.40;;;28.00;59.70;;;;;;1894048;76;21421;-47
2021/08/21 11:08:43;;;;;;;;;;;28.00;59.30;;;;;;1895845;75;21092;-46
2021/08/21 11:11:17;;;;;;;8.48;5.25;;;28.00;58.30;;;;;;1893969;76;20099;-45
2021/08/21 11:14:07;;;;;;;11.75;5.12;;;28.00;58.60;;;;;;1894101;76;21074;-49
2021/08/21 11:16:51;;;;;;;5.97;4.62;;;28.00;58.90;;;;;;1894101;75;21089;-47
2021/08/21 11:19:27;;;;;;;10.98;4.83;;;28.00;58.70;;;;;;1894089;76;21108;-49
2021/08/21 11:22:11;;;;;;;8.48;5.12;;;28.10;58.90;;;;;;1894210;74;21526;-46
2021/08/21 11:24:56;;;;;;;6.80;4.95;;;28.10;58.20;;;;;;1862823;76;21046;-49
2021/08/21 11:27:31;;;;;;;7.60;4.75;;;28.10;58.60;;;;;;1894386;76;21104;-46
2021/08/21 11:30:20;;;;;;;7.60;4.97;;;28.10;58.40;;;;;;1894093;74;21014;-49
2021/08/21 11:32:57;;;;;;;6.25;4.28;;;28.20;58.40;;;;;;1893781;75;21022;-49
2021/08/21 11:35:32;;;;;;;11.78;4.62;;;28.20;58.60;;;;;;1860765;75;21113;-48
2021/08/21 11:38:09;;;;;;;6.60;4.75;;;28.20;58.30;;;;;;1894199;76;21464;-47
2021/08/21 11:40:47;;;;;;;8.45;4.72;;;28.20;58.10;;;;;;1894086;76;21002;-48
2021/08/21 11:43:27;;;;;;;6.28;4.85;;;28.20;58.30;;;;;;1894065;75;21155;-47
2021/08/21 11:45:58;;;;;;;6.72;4.53;;;28.20;57.90;;;;;;1893838;75;21503;-49
2021/08/21 11:48:35;;;;;;;7.95;4.62;;;28.20;58.10;;;;;;1894086;76;21034;-48
2021/08/21 11:51:05;;;;;;;13.58;5.72;;;28.20;58.40;;;;;;1894154;76;20998;-46
2021/08/21 11:53:40;;;;;;;7.65;4.83;;;28.30;58.90;;;;;;1894170;76;21464;-47
2021/08/21 11:56:08;;;;;;;;;;;28.30;58.70;;;;;;1896891;76;20999;-49
2021/08/21 11:58:49;;;;;;;7.30;4.65;;;28.40;58.30;;;;;;1894068;75;20103;-46
2021/08/21 12:01:11;;;;;;;6.45;4.45;;;28.40;58.80;;;;;;1887982;75;21031;-47
2021/08/21 12:06:36;;;;;;;8.38;4.47;;;28.40;59.00;;;;;;1894417;75;21022;-49
2021/08/21 12:09:16;;;;;;;7.80;4.45;;;28.40;58.30;;;;;;1894100;76;21080;-50
2021/08/21 12:11:48;;;;;;;8.53;5.03;;;28.40;58.30;;;;;;1894205;75;21028;-49
2021/08/21 12:14:19;;;;;;;6.35;4.17;;;28.40;58.10;;;;;;1894179;76;21097;-48
2021/08/21 12:16:50;;;;;;;7.80;4.35;;;28.40;58.40;;;;;;1894145;76;21015;-48
2021/08/21 12:19:21;;;;;;;7.67;4.42;;;28.40;58.00;;;;;;1894344;76;21137;-48
2021/08/21 12:21:52;;;;;;;6.10;3.90;;;28.40;57.90;;;;;;1894172;76;21113;-49
2021/08/21 12:24:21;;;;;;;9.00;4.50;;;28.40;58.00;;;;;;1894017;75;21091;-49
2021/08/21 12:26:50;;;;;;;6.25;4.40;;;28.40;58.40;;;;;;1894014;76;21050;-49
2021/08/21 12:29:33;;;;;;;8.75;4.87;;;28.40;58.40;;;;;;1894208;75;21022;-50
2021/08/21 12:32:03;;;;;;;6.58;4.35;;;28.40;58.60;;;;;;1894087;76;21166;-50
2021/08/21 12:34:33;;;;;;;8.63;4.85;;;28.40;58.50;;;;;;1894074;76;21002;-48
2021/08/21 12:37:09;;;;;;;7.17;5.10;;;28.40;58.50;;;;;;1894122;75;21002;-49
2021/08/21 12:39:42;;;;;;;9.98;4.55;;;28.40;58.70;;;;;;1894174;75;21096;-49
2021/08/21 12:42:14;;;;;;;8.00;4.97;;;28.40;58.60;;;;;;1893982;75;21476;-48
2021/08/21 12:44:42;;;;;;;4.87;4.20;;;28.40;58.50;;;;;;1893143;75;21534;-51
2021/08/21 12:47:18;;;;;;;6.90;4.35;;;28.40;58.40;;;;;;1894162;76;21022;-48
2021/08/21 12:49:49;;;;;;;14.23;6.05;;;28.40;58.30;;;;;;1894130;76;21092;-49
2021/08/21 12:52:25;;;;;;;9.15;5.42;;;28.40;58.60;;;;;;1894162;76;21149;-51
2021/08/21 12:55:06;;;;;;;11.88;5.00;;;28.50;58.60;;;;;;1894017;76;21038;-50
2021/08/21 12:57:44;;;;;;;10.48;5.83;;;28.50;58.20;;;;;;1894044;76;21072;-48
2021/08/21 13:00:20;;;;;;;12.28;5.45;;;28.50;58.60;;;;;;1894137;76;21515;-51
2021/08/21 13:02:54;;;;;;;6.75;5.17;;;28.50;57.70;;;;;;1894038;75;21108;-50
2021/08/21 13:05:30;;;;;;;7.53;4.45;;;28.50;58.30;;;;;;1894078;76;21006;-47
2021/08/21 13:08:08;;;;;;;10.75;5.05;;;28.50;58.40;;;;;;1892624;75;21060;-49